sensor_id;sensor_type;location;lat;lon;timestamp;temperature;humidity
10986;DHT22;5546;48.714;8.738;2023-04-24T00:02:16;14.50;94.50
10986;DHT22;5546;48.714;8.738;2023-04-24T00:07:10;14.10;94.80
10986;DHT22;5546;48.714;8.738;2023-04-24T00:14:31;13.60;95.70
10986;DHT22;5546;48.714;8.738;2023-04-24T00:16:57;13.60;95.80
10986;DHT22;5546;48.714;8.738;2023-04-24T00:21:48;14.20;95.40
10986;DHT22;5546;48.714;8.738;2023-04-24T00:31:35;14.50;94.50
10986;DHT22;5546;48.714;8.738;2023-04-24T00:34:01;14.00;94.60
10986;DHT22;5546;48.714;8.738;2023-04-24T00:36:27;14.10;95.20
10986;DHT22;5546;48.714;8.738;2023-04-24T00:38:53;14.30;95.00
10986;DHT22;5546;48.714;8.738;2023-04-24T00:41:19;14.10;95.40
10986;DHT22;5546;48.714;8.738;2023-04-24T00:43:46;14.20;95.40
10986;DHT22;5546;48.714;8.738;2023-04-24T00:46:12;14.30;94.30
10986;DHT22;5546;48.714;8.738;2023-04-24T00:48:39;13.90;94.90
10986;DHT22;5546;48.714;8.738;2023-04-24T00:53:31;14.60;94.90
10986;DHT22;5546;48.714;8.738;2023-04-24T00:58:24;14.70;94.40
10986;DHT22;5546;48.714;8.738;2023-04-24T01:00:50;14.60;94.60
10986;DHT22;5546;48.714;8.738;2023-04-24T01:03:22;14.70;94.80
10986;DHT22;5546;48.714;8.738;2023-04-24T01:08:15;14.60;94.30
10986;DHT22;5546;48.714;8.738;2023-04-24T01:10:41;14.80;94.00
10986;DHT22;5546;48.714;8.738;2023-04-24T01:13:10;14.80;93.50
10986;DHT22;5546;48.714;8.738;2023-04-24T01:20:28;14.30;95.30
10986;DHT22;5546;48.714;8.738;2023-04-24T01:22:55;14.30;95.60
10986;DHT22;5546;48.714;8.738;2023-04-24T01:25:22;14.40;95.30
10986;DHT22;5546;48.714;8.738;2023-04-24T01:27:47;14.50;95.10
10986;DHT22;5546;48.714;8.738;2023-04-24T01:30:13;14.40;95.40
10986;DHT22;5546;48.714;8.738;2023-04-24T01:32:40;14.30;95.50
10986;DHT22;5546;48.714;8.738;2023-04-24T01:35:06;14.30;95.10
10986;DHT22;5546;48.714;8.738;2023-04-24T01:37:32;14.10;95.80
10986;DHT22;5546;48.714;8.738;2023-04-24T01:44:50;14.60;95.00
10986;DHT22;5546;48.714;8.738;2023-04-24T01:47:16;14.60;94.80
10986;DHT22;5546;48.714;8.738;2023-04-24T01:49:42;14.60;95.00
10986;DHT22;5546;48.714;8.738;2023-04-24T01:52:08;14.20;95.30
10986;DHT22;5546;48.714;8.738;2023-04-24T01:54:33;14.20;95.00
10986;DHT22;5546;48.714;8.738;2023-04-24T01:56:59;14.20;95.80
10986;DHT22;5546;48.714;8.738;2023-04-24T01:59:28;14.50;95.10
10986;DHT22;5546;48.714;8.738;2023-04-24T02:04:19;14.20;95.60
10986;DHT22;5546;48.714;8.738;2023-04-24T02:06:45;13.90;96.10
10986;DHT22;5546;48.714;8.738;2023-04-24T02:11:37;14.00;96.30
10986;DHT22;5546;48.714;8.738;2023-04-24T02:16:29;13.80;96.90
10986;DHT22;5546;48.714;8.738;2023-04-24T02:21:23;13.50;97.50
10986;DHT22;5546;48.714;8.738;2023-04-24T02:23:49;13.70;97.10
10986;DHT22;5546;48.714;8.738;2023-04-24T02:31:07;13.80;97.30
10986;DHT22;5546;48.714;8.738;2023-04-24T02:35:59;13.70;97.80
10986;DHT22;5546;48.714;8.738;2023-04-24T02:48:08;13.80;97.70
10986;DHT22;5546;48.714;8.738;2023-04-24T02:53:00;13.60;97.70
10986;DHT22;5546;48.714;8.738;2023-04-24T02:55:25;13.50;97.70
10986;DHT22;5546;48.714;8.738;2023-04-24T03:07:37;13.50;97.90
10986;DHT22;5546;48.714;8.738;2023-04-24T03:10:03;13.60;97.70
10986;DHT22;5546;48.714;8.738;2023-04-24T03:12:30;13.60;97.90
10986;DHT22;5546;48.714;8.738;2023-04-24T03:14:55;13.60;98.00
10986;DHT22;5546;48.714;8.738;2023-04-24T03:17:21;13.60;97.90
10986;DHT22;5546;48.714;8.738;2023-04-24T03:27:05;13.50;98.00
10986;DHT22;5546;48.714;8.738;2023-04-24T04:03:38;12.00;96.70
10986;DHT22;5546;48.714;8.738;2023-04-24T04:10:55;12.00;96.90
10986;DHT22;5546;48.714;8.738;2023-04-24T04:15:47;12.20;95.40
10986;DHT22;5546;48.714;8.738;2023-04-24T04:32:51;12.30;95.70
10986;DHT22;5546;48.714;8.738;2023-04-24T04:45:08;12.10;96.80
10986;DHT22;5546;48.714;8.738;2023-04-24T04:54:55;12.00;96.80
10986;DHT22;5546;48.714;8.738;2023-04-24T04:59:47;12.00;96.90
10986;DHT22;5546;48.714;8.738;2023-04-24T05:07:05;11.80;97.30
10986;DHT22;5546;48.714;8.738;2023-04-24T05:09:31;11.60;97.40
10986;DHT22;5546;48.714;8.738;2023-04-24T05:16:49;11.40;98.30
10986;DHT22;5546;48.714;8.738;2023-04-24T05:26:33;11.90;99.10
10986;DHT22;5546;48.714;8.738;2023-04-24T05:31:25;12.10;99.10
10986;DHT22;5546;48.714;8.738;2023-04-24T05:53:18;13.70;97.00
10986;DHT22;5546;48.714;8.738;2023-04-24T05:58:11;14.50;95.10
10986;DHT22;5546;48.714;8.738;2023-04-24T06:00:37;14.00;95.10
10986;DHT22;5546;48.714;8.738;2023-04-24T06:03:05;14.20;93.80
10986;DHT22;5546;48.714;8.738;2023-04-24T06:12:48;15.70;90.80
10986;DHT22;5546;48.714;8.738;2023-04-24T06:17:40;17.30;88.30
10986;DHT22;5546;48.714;8.738;2023-04-24T06:20:06;18.20;83.40
10986;DHT22;5546;48.714;8.738;2023-04-24T06:22:33;18.20;84.00
10986;DHT22;5546;48.714;8.738;2023-04-24T06:24:59;19.00;80.90
10986;DHT22;5546;48.714;8.738;2023-04-24T06:27:25;18.50;77.40
10986;DHT22;5546;48.714;8.738;2023-04-24T06:29:51;18.40;78.00
10986;DHT22;5546;48.714;8.738;2023-04-24T06:32:22;17.60;82.40
10986;DHT22;5546;48.714;8.738;2023-04-24T06:34:47;16.80;83.00
10986;DHT22;5546;48.714;8.738;2023-04-24T06:37:13;17.20;84.10
10986;DHT22;5546;48.714;8.738;2023-04-24T06:39:39;16.70;83.20
10986;DHT22;5546;48.714;8.738;2023-04-24T06:44:31;16.70;82.70
10986;DHT22;5546;48.714;8.738;2023-04-24T06:46:56;17.00;80.80
10986;DHT22;5546;48.714;8.738;2023-04-24T06:49:22;17.20;82.60
10986;DHT22;5546;48.714;8.738;2023-04-24T06:54:13;16.60;80.70
10986;DHT22;5546;48.714;8.738;2023-04-24T06:56:39;15.70;80.60
10986;DHT22;5546;48.714;8.738;2023-04-24T07:01:30;15.10;83.80
10986;DHT22;5546;48.714;8.738;2023-04-24T07:11:15;15.40;81.00
10986;DHT22;5546;48.714;8.738;2023-04-24T07:13:40;15.90;81.80
10986;DHT22;5546;48.714;8.738;2023-04-24T07:18:33;16.60;77.00
10986;DHT22;5546;48.714;8.738;2023-04-24T07:20:59;16.60;77.30
10986;DHT22;5546;48.714;8.738;2023-04-24T07:23:26;16.70;77.00
10986;DHT22;5546;48.714;8.738;2023-04-24T07:25:51;16.80;75.50
10986;DHT22;5546;48.714;8.738;2023-04-24T07:28:17;16.60;74.20
10986;DHT22;5546;48.714;8.738;2023-04-24T07:30:43;16.50;74.20
10986;DHT22;5546;48.714;8.738;2023-04-24T07:35:38;16.60;72.90
10986;DHT22;5546;48.714;8.738;2023-04-24T07:38:04;16.60;72.70
10986;DHT22;5546;48.714;8.738;2023-04-24T07:42:56;16.40;72.70
10986;DHT22;5546;48.714;8.738;2023-04-24T07:45:21;16.60;72.40
10986;DHT22;5546;48.714;8.738;2023-04-24T07:47:48;17.40;71.30
10986;DHT22;5546;48.714;8.738;2023-04-24T07:50:13;18.10;67.70
10986;DHT22;5546;48.714;8.738;2023-04-24T07:52:39;18.20;68.40
10986;DHT22;5546;48.714;8.738;2023-04-24T07:55:05;18.20;69.00
10986;DHT22;5546;48.714;8.738;2023-04-24T07:57:31;18.70;67.20
10986;DHT22;5546;48.714;8.738;2023-04-24T08:02:22;18.30;66.50
10986;DHT22;5546;48.714;8.738;2023-04-24T08:04:52;18.40;67.00
10986;DHT22;5546;48.714;8.738;2023-04-24T08:07:19;19.70;64.20
10986;DHT22;5546;48.714;8.738;2023-04-24T08:09:45;18.60;63.90
10986;DHT22;5546;48.714;8.738;2023-04-24T08:12:10;18.60;64.90
10986;DHT22;5546;48.714;8.738;2023-04-24T08:14:36;17.50;65.10
10986;DHT22;5546;48.714;8.738;2023-04-24T08:17:01;17.70;67.60
10986;DHT22;5546;48.714;8.738;2023-04-24T08:19:27;17.70;65.30
10986;DHT22;5546;48.714;8.738;2023-04-24T08:21:53;17.70;65.90
10986;DHT22;5546;48.714;8.738;2023-04-24T08:24:18;18.20;67.20
10986;DHT22;5546;48.714;8.738;2023-04-24T08:26:44;19.70;64.10
10986;DHT22;5546;48.714;8.738;2023-04-24T08:29:11;18.80;63.40
10986;DHT22;5546;48.714;8.738;2023-04-24T08:31:36;17.80;66.30
10986;DHT22;5546;48.714;8.738;2023-04-24T08:34:02;17.20;69.30
10986;DHT22;5546;48.714;8.738;2023-04-24T08:36:28;16.20;71.10
10986;DHT22;5546;48.714;8.738;2023-04-24T08:38:53;16.60;71.10
10986;DHT22;5546;48.714;8.738;2023-04-24T08:41:19;16.30;69.90
10986;DHT22;5546;48.714;8.738;2023-04-24T08:43:47;16.00;71.10
10986;DHT22;5546;48.714;8.738;2023-04-24T08:46:15;16.00;74.10
10986;DHT22;5546;48.714;8.738;2023-04-24T08:48:42;16.10;74.70
10986;DHT22;5546;48.714;8.738;2023-04-24T08:51:08;17.60;71.00
10986;DHT22;5546;48.714;8.738;2023-04-24T08:53:35;19.30;66.90
10986;DHT22;5546;48.714;8.738;2023-04-24T08:56:01;19.40;64.60
10986;DHT22;5546;48.714;8.738;2023-04-24T08:58:28;19.40;64.70
10986;DHT22;5546;48.714;8.738;2023-04-24T09:00:57;20.00;62.90
10986;DHT22;5546;48.714;8.738;2023-04-24T09:03:23;21.20;60.10
10986;DHT22;5546;48.714;8.738;2023-04-24T09:05:49;21.60;58.60
10986;DHT22;5546;48.714;8.738;2023-04-24T09:08:18;22.00;58.10
10986;DHT22;5546;48.714;8.738;2023-04-24T09:10:44;22.50;58.00
10986;DHT22;5546;48.714;8.738;2023-04-24T09:13:10;23.80;54.00
10986;DHT22;5546;48.714;8.738;2023-04-24T09:15:37;23.20;51.90
10986;DHT22;5546;48.714;8.738;2023-04-24T09:18:03;22.70;52.50
10986;DHT22;5546;48.714;8.738;2023-04-24T09:20:29;21.40;53.60
10986;DHT22;5546;48.714;8.738;2023-04-24T09:22:54;20.30;54.70
10986;DHT22;5546;48.714;8.738;2023-04-24T09:25:30;19.60;57.20
10986;DHT22;5546;48.714;8.738;2023-04-24T09:28:00;19.80;57.00
10986;DHT22;5546;48.714;8.738;2023-04-24T09:30:26;20.90;54.80
10986;DHT22;5546;48.714;8.738;2023-04-24T09:33:13;20.90;53.40
10986;DHT22;5546;48.714;8.738;2023-04-24T09:35:48;19.20;56.20
10986;DHT22;5546;48.714;8.738;2023-04-24T09:38:14;19.30;57.30
10986;DHT22;5546;48.714;8.738;2023-04-24T09:40:39;19.60;57.10
10986;DHT22;5546;48.714;8.738;2023-04-24T09:43:10;20.40;55.50
10986;DHT22;5546;48.714;8.738;2023-04-24T09:45:37;21.90;53.40
10986;DHT22;5546;48.714;8.738;2023-04-24T09:48:04;22.20;52.00
10986;DHT22;5546;48.714;8.738;2023-04-24T09:50:31;22.00;52.10
10986;DHT22;5546;48.714;8.738;2023-04-24T09:52:59;21.60;52.30
10986;DHT22;5546;48.714;8.738;2023-04-24T09:55:27;19.70;52.90
10986;DHT22;5546;48.714;8.738;2023-04-24T09:57:55;21.60;53.30
10986;DHT22;5546;48.714;8.738;2023-04-24T10:00:29;22.40;51.50
10986;DHT22;5546;48.714;8.738;2023-04-24T10:02:59;22.60;51.60
10986;DHT22;5546;48.714;8.738;2023-04-24T10:05:30;22.80;49.60
10986;DHT22;5546;48.714;8.738;2023-04-24T10:08:07;21.50;52.20
10986;DHT22;5546;48.714;8.738;2023-04-24T10:10:35;21.50;52.80
10986;DHT22;5546;48.714;8.738;2023-04-24T10:13:01;21.60;51.10
10986;DHT22;5546;48.714;8.738;2023-04-24T10:15:28;21.20;51.70
10986;DHT22;5546;48.714;8.738;2023-04-24T10:17:53;21.20;53.90
10986;DHT22;5546;48.714;8.738;2023-04-24T10:20:24;19.90;53.30
10986;DHT22;5546;48.714;8.738;2023-04-24T10:22:52;19.80;54.60
10986;DHT22;5546;48.714;8.738;2023-04-24T10:25:26;19.70;55.00
10986;DHT22;5546;48.714;8.738;2023-04-24T10:27:53;20.00;55.00
10986;DHT22;5546;48.714;8.738;2023-04-24T10:30:22;21.50;53.30
10986;DHT22;5546;48.714;8.738;2023-04-24T10:32:48;22.20;51.10
10986;DHT22;5546;48.714;8.738;2023-04-24T10:35:14;21.20;50.80
10986;DHT22;5546;48.714;8.738;2023-04-24T10:37:45;18.60;54.40
10986;DHT22;5546;48.714;8.738;2023-04-24T10:40:16;17.70;56.90
10986;DHT22;5546;48.714;8.738;2023-04-24T10:42:42;16.80;58.40
10986;DHT22;5546;48.714;8.738;2023-04-24T10:45:16;16.70;59.60
10986;DHT22;5546;48.714;8.738;2023-04-24T10:48:06;16.70;60.40
10986;DHT22;5546;48.714;8.738;2023-04-24T10:50:44;16.70;60.60
10986;DHT22;5546;48.714;8.738;2023-04-24T10:53:16;17.10;60.00
10986;DHT22;5546;48.714;8.738;2023-04-24T10:58:09;18.90;56.20
10986;DHT22;5546;48.714;8.738;2023-04-24T11:00:40;18.70;56.30
10986;DHT22;5546;48.714;8.738;2023-04-24T11:03:07;18.60;56.80
10986;DHT22;5546;48.714;8.738;2023-04-24T11:05:56;17.10;60.00
10986;DHT22;5546;48.714;8.738;2023-04-24T11:11:08;16.30;63.70
10986;DHT22;5546;48.714;8.738;2023-04-24T11:18:51;15.80;65.70
10986;DHT22;5546;48.714;8.738;2023-04-24T11:21:20;16.80;63.60
10986;DHT22;5546;48.714;8.738;2023-04-24T11:23:47;18.40;59.50
10986;DHT22;5546;48.714;8.738;2023-04-24T11:26:23;18.50;59.80
10986;DHT22;5546;48.714;8.738;2023-04-24T11:29:06;20.10;56.70
10986;DHT22;5546;48.714;8.738;2023-04-24T11:31:40;21.20;54.50
10986;DHT22;5546;48.714;8.738;2023-04-24T11:34:11;21.10;53.00
10986;DHT22;5546;48.714;8.738;2023-04-24T11:36:38;18.40;57.40
10986;DHT22;5546;48.714;8.738;2023-04-24T11:39:04;17.50;58.40
10986;DHT22;5546;48.714;8.738;2023-04-24T11:41:30;16.70;61.40
10986;DHT22;5546;48.714;8.738;2023-04-24T11:43:56;16.20;62.90
10986;DHT22;5546;48.714;8.738;2023-04-24T11:46:22;15.70;63.20
10986;DHT22;5546;48.714;8.738;2023-04-24T11:48:48;15.30;64.30
10986;DHT22;5546;48.714;8.738;2023-04-24T11:53:40;15.40;63.50
10986;DHT22;5546;48.714;8.738;2023-04-24T11:58:35;16.30;62.90
10986;DHT22;5546;48.714;8.738;2023-04-24T12:01:01;16.50;61.70
10986;DHT22;5546;48.714;8.738;2023-04-24T12:03:27;16.30;61.80
10986;DHT22;5546;48.714;8.738;2023-04-24T12:05:53;16.30;61.60
10986;DHT22;5546;48.714;8.738;2023-04-24T12:10:56;16.30;62.20
10986;DHT22;5546;48.714;8.738;2023-04-24T12:13:21;16.40;62.50
10986;DHT22;5546;48.714;8.738;2023-04-24T12:15:47;17.10;61.00
10986;DHT22;5546;48.714;8.738;2023-04-24T12:18:12;16.90;60.60
10986;DHT22;5546;48.714;8.738;2023-04-24T12:20:43;16.20;61.70
10986;DHT22;5546;48.714;8.738;2023-04-24T12:25:35;16.50;63.70
10986;DHT22;5546;48.714;8.738;2023-04-24T12:30:30;16.40;64.30
10986;DHT22;5546;48.714;8.738;2023-04-24T12:32:58;16.60;65.50
10986;DHT22;5546;48.714;8.738;2023-04-24T12:35:25;16.20;68.40
10986;DHT22;5546;48.714;8.738;2023-04-24T12:37:52;16.40;69.30
10986;DHT22;5546;48.714;8.738;2023-04-24T12:40:20;16.10;66.10
10986;DHT22;5546;48.714;8.738;2023-04-24T12:42:48;15.60;66.60
10986;DHT22;5546;48.714;8.738;2023-04-24T12:45:15;15.30;68.20
10986;DHT22;5546;48.714;8.738;2023-04-24T12:47:42;15.40;67.60
10986;DHT22;5546;48.714;8.738;2023-04-24T12:50:09;16.10;66.90
10986;DHT22;5546;48.714;8.738;2023-04-24T12:52:35;16.30;65.60
10986;DHT22;5546;48.714;8.738;2023-04-24T12:55:02;16.90;65.00
10986;DHT22;5546;48.714;8.738;2023-04-24T12:57:29;17.20;63.40
10986;DHT22;5546;48.714;8.738;2023-04-24T12:59:56;16.90;65.20
10986;DHT22;5546;48.714;8.738;2023-04-24T13:02:32;16.30;66.00
10986;DHT22;5546;48.714;8.738;2023-04-24T13:04:59;16.20;68.50
10986;DHT22;5546;48.714;8.738;2023-04-24T13:09:51;16.10;72.60
10986;DHT22;5546;48.714;8.738;2023-04-24T13:12:17;16.10;73.80
10986;DHT22;5546;48.714;8.738;2023-04-24T13:14:43;16.00;72.60
10986;DHT22;5546;48.714;8.738;2023-04-24T13:19:45;14.80;77.90
10986;DHT22;5546;48.714;8.738;2023-04-24T13:22:11;14.70;79.80
10986;DHT22;5546;48.714;8.738;2023-04-24T13:24:37;15.20;77.30
10986;DHT22;5546;48.714;8.738;2023-04-24T13:27:04;15.20;78.90
10986;DHT22;5546;48.714;8.738;2023-04-24T13:29:29;15.60;80.40
10986;DHT22;5546;48.714;8.738;2023-04-24T13:34:23;16.00;77.10
10986;DHT22;5546;48.714;8.738;2023-04-24T13:36:50;15.80;75.00
10986;DHT22;5546;48.714;8.738;2023-04-24T13:41:42;15.50;80.20
10986;DHT22;5546;48.714;8.738;2023-04-24T13:44:08;15.30;80.80
10986;DHT22;5546;48.714;8.738;2023-04-24T13:48:59;14.70;84.90
10986;DHT22;5546;48.714;8.738;2023-04-24T13:53:54;14.50;87.10
10986;DHT22;5546;48.714;8.738;2023-04-24T13:56:20;15.20;83.90
10986;DHT22;5546;48.714;8.738;2023-04-24T14:01:12;18.20;77.50
10986;DHT22;5546;48.714;8.738;2023-04-24T14:03:38;19.10;72.70
10986;DHT22;5546;48.714;8.738;2023-04-24T14:06:04;19.20;73.30
10986;DHT22;5546;48.714;8.738;2023-04-24T14:08:29;19.40;69.00
10986;DHT22;5546;48.714;8.738;2023-04-24T14:10:55;18.80;71.80
10986;DHT22;5546;48.714;8.738;2023-04-24T14:13:21;18.90;70.00
10986;DHT22;5546;48.714;8.738;2023-04-24T14:15:46;18.90;70.50
10986;DHT22;5546;48.714;8.738;2023-04-24T14:18:12;18.50;70.10
10986;DHT22;5546;48.714;8.738;2023-04-24T14:20:38;18.20;71.00
10986;DHT22;5546;48.714;8.738;2023-04-24T14:23:03;18.70;66.50
10986;DHT22;5546;48.714;8.738;2023-04-24T14:25:29;18.70;66.80
10986;DHT22;5546;48.714;8.738;2023-04-24T14:27:55;17.90;68.70
10986;DHT22;5546;48.714;8.738;2023-04-24T14:30:21;17.10;69.60
10986;DHT22;5546;48.714;8.738;2023-04-24T14:37:39;16.40;72.20
10986;DHT22;5546;48.714;8.738;2023-04-24T14:40:07;16.50;71.30
10986;DHT22;5546;48.714;8.738;2023-04-24T14:42:33;16.00;71.50
10986;DHT22;5546;48.714;8.738;2023-04-24T14:44:59;16.10;71.10
10986;DHT22;5546;48.714;8.738;2023-04-24T14:49:50;16.20;70.90
10986;DHT22;5546;48.714;8.738;2023-04-24T14:52:16;16.30;71.30
10986;DHT22;5546;48.714;8.738;2023-04-24T14:54:42;16.10;72.70
10986;DHT22;5546;48.714;8.738;2023-04-24T14:57:08;16.00;75.20
10986;DHT22;5546;48.714;8.738;2023-04-24T14:59:34;16.20;74.20
10986;DHT22;5546;48.714;8.738;2023-04-24T15:04:28;17.00;71.60
10986;DHT22;5546;48.714;8.738;2023-04-24T15:06:56;16.70;71.50
10986;DHT22;5546;48.714;8.738;2023-04-24T15:09:23;16.90;70.60
10986;DHT22;5546;48.714;8.738;2023-04-24T15:11:49;16.90;69.80
10986;DHT22;5546;48.714;8.738;2023-04-24T15:14:16;16.50;70.30
10986;DHT22;5546;48.714;8.738;2023-04-24T15:16:41;16.50;71.00
10986;DHT22;5546;48.714;8.738;2023-04-24T15:19:07;16.70;70.70
10986;DHT22;5546;48.714;8.738;2023-04-24T15:21:33;16.80;70.20
10986;DHT22;5546;48.714;8.738;2023-04-24T15:23:59;16.80;69.90
10986;DHT22;5546;48.714;8.738;2023-04-24T15:26:24;16.90;70.50
10986;DHT22;5546;48.714;8.738;2023-04-24T15:28:51;17.60;68.70
10986;DHT22;5546;48.714;8.738;2023-04-24T15:31:17;18.10;67.60
10986;DHT22;5546;48.714;8.738;2023-04-24T15:33:43;18.10;66.30
10986;DHT22;5546;48.714;8.738;2023-04-24T15:36:09;17.90;66.40
10986;DHT22;5546;48.714;8.738;2023-04-24T15:38:35;17.90;66.90
10986;DHT22;5546;48.714;8.738;2023-04-24T15:41:01;17.90;67.50
10986;DHT22;5546;48.714;8.738;2023-04-24T15:43:26;18.50;62.50
10986;DHT22;5546;48.714;8.738;2023-04-24T15:45:54;18.60;63.10
10986;DHT22;5546;48.714;8.738;2023-04-24T15:48:20;18.90;60.90
10986;DHT22;5546;48.714;8.738;2023-04-24T15:53:12;17.70;62.10
10986;DHT22;5546;48.714;8.738;2023-04-24T15:55:37;17.50;62.60
10986;DHT22;5546;48.714;8.738;2023-04-24T15:58:03;17.10;63.80
10986;DHT22;5546;48.714;8.738;2023-04-24T16:00:29;17.20;63.60
10986;DHT22;5546;48.714;8.738;2023-04-24T16:03:00;16.80;64.10
10986;DHT22;5546;48.714;8.738;2023-04-24T16:05:25;16.80;63.40
10986;DHT22;5546;48.714;8.738;2023-04-24T16:07:51;16.30;64.50
10986;DHT22;5546;48.714;8.738;2023-04-24T16:10:16;16.10;66.50
10986;DHT22;5546;48.714;8.738;2023-04-24T16:12:42;16.10;65.80
10986;DHT22;5546;48.714;8.738;2023-04-24T16:15:08;16.20;66.00
10986;DHT22;5546;48.714;8.738;2023-04-24T16:17:34;16.20;65.00
10986;DHT22;5546;48.714;8.738;2023-04-24T16:19:59;16.30;65.70
10986;DHT22;5546;48.714;8.738;2023-04-24T16:22:25;16.10;65.80
10986;DHT22;5546;48.714;8.738;2023-04-24T16:24:51;15.50;67.00
10986;DHT22;5546;48.714;8.738;2023-04-24T16:32:09;15.20;68.60
10986;DHT22;5546;48.714;8.738;2023-04-24T16:37:01;15.20;67.00
10986;DHT22;5546;48.714;8.738;2023-04-24T16:41:52;14.70;68.60
10986;DHT22;5546;48.714;8.738;2023-04-24T16:44:19;14.70;68.60
10986;DHT22;5546;48.714;8.738;2023-04-24T16:46:45;14.90;67.70
10986;DHT22;5546;48.714;8.738;2023-04-24T17:11:04;15.20;69.40
10986;DHT22;5546;48.714;8.738;2023-04-24T17:13:30;14.90;70.90
10986;DHT22;5546;48.714;8.738;2023-04-24T17:15:55;14.90;70.20
10986;DHT22;5546;48.714;8.738;2023-04-24T17:18:21;15.10;71.30
10986;DHT22;5546;48.714;8.738;2023-04-24T17:23:12;14.90;73.20
10986;DHT22;5546;48.714;8.738;2023-04-24T17:25:38;14.70;73.70
10986;DHT22;5546;48.714;8.738;2023-04-24T17:28:35;14.80;73.50
10986;DHT22;5546;48.714;8.738;2023-04-24T17:30:59;15.00;74.80
10986;DHT22;5546;48.714;8.738;2023-04-24T17:33:29;14.80;75.20
10986;DHT22;5546;48.714;8.738;2023-04-24T17:35:55;14.60;77.10
10986;DHT22;5546;48.714;8.738;2023-04-24T17:38:22;14.10;80.60
10986;DHT22;5546;48.714;8.738;2023-04-24T17:40:49;14.30;79.60
10986;DHT22;5546;48.714;8.738;2023-04-24T17:43:21;14.60;76.30
10986;DHT22;5546;48.714;8.738;2023-04-24T17:45:51;14.90;76.10
10986;DHT22;5546;48.714;8.738;2023-04-24T17:50:45;14.80;77.30
10986;DHT22;5546;48.714;8.738;2023-04-24T17:55:37;14.50;78.50
10986;DHT22;5546;48.714;8.738;2023-04-24T17:58:03;14.60;78.60
10986;DHT22;5546;48.714;8.738;2023-04-24T18:00:30;14.70;76.50
10986;DHT22;5546;48.714;8.738;2023-04-24T18:02:55;14.80;76.10
10986;DHT22;5546;48.714;8.738;2023-04-24T18:05:28;14.60;79.60
10986;DHT22;5546;48.714;8.738;2023-04-24T18:07:54;14.70;78.80
10986;DHT22;5546;48.714;8.738;2023-04-24T18:10:20;14.70;79.20
10986;DHT22;5546;48.714;8.738;2023-04-24T18:12:46;14.80;75.80
10986;DHT22;5546;48.714;8.738;2023-04-24T18:15:12;14.20;76.90
10986;DHT22;5546;48.714;8.738;2023-04-24T18:20:04;14.30;78.80
10986;DHT22;5546;48.714;8.738;2023-04-24T18:22:34;14.30;78.60
10986;DHT22;5546;48.714;8.738;2023-04-24T18:25:00;14.20;80.80
10986;DHT22;5546;48.714;8.738;2023-04-24T18:29:55;13.60;82.00
10986;DHT22;5546;48.714;8.738;2023-04-24T18:34:47;13.80;83.10
10986;DHT22;5546;48.714;8.738;2023-04-24T18:37:13;13.90;82.40
10986;DHT22;5546;48.714;8.738;2023-04-24T18:42:08;13.50;83.40
10986;DHT22;5546;48.714;8.738;2023-04-24T18:51:52;12.80;86.70
10986;DHT22;5546;48.714;8.738;2023-04-24T18:54:18;12.90;86.80
10986;DHT22;5546;48.714;8.738;2023-04-24T18:56:43;12.70;86.30
10986;DHT22;5546;48.714;8.738;2023-04-24T19:04:04;12.60;86.90
10986;DHT22;5546;48.714;8.738;2023-04-24T19:08:57;12.70;85.80
10986;DHT22;5546;48.714;8.738;2023-04-24T19:16:15;12.30;88.40
10986;DHT22;5546;48.714;8.738;2023-04-24T19:26:04;12.10;88.30
10986;DHT22;5546;48.714;8.738;2023-04-24T19:28:30;11.80;89.50
10986;DHT22;5546;48.714;8.738;2023-04-24T19:30:56;11.90;89.20
10986;DHT22;5546;48.714;8.738;2023-04-24T19:33:23;11.70;89.60
10986;DHT22;5546;48.714;8.738;2023-04-24T19:35:49;11.70;90.00
10986;DHT22;5546;48.714;8.738;2023-04-24T19:55:17;11.90;89.50
10986;DHT22;5546;48.714;8.738;2023-04-24T20:00:09;11.10;91.50
10986;DHT22;5546;48.714;8.738;2023-04-24T20:02:35;11.10;91.80
10986;DHT22;5546;48.714;8.738;2023-04-24T20:09:52;11.10;91.10
10986;DHT22;5546;48.714;8.738;2023-04-24T20:14:46;11.60;91.10
10986;DHT22;5546;48.714;8.738;2023-04-24T20:17:12;11.70;90.80
10986;DHT22;5546;48.714;8.738;2023-04-24T20:22:05;12.20;90.20
10986;DHT22;5546;48.714;8.738;2023-04-24T20:39:07;12.00;90.20
10986;DHT22;5546;48.714;8.738;2023-04-24T20:53:45;11.80;90.50
10986;DHT22;5546;48.714;8.738;2023-04-24T20:56:14;11.60;91.00
10986;DHT22;5546;48.714;8.738;2023-04-24T20:58:39;11.60;90.80
10986;DHT22;5546;48.714;8.738;2023-04-24T21:01:05;11.60;90.70
10986;DHT22;5546;48.714;8.738;2023-04-24T21:13:16;11.50;91.00
10986;DHT22;5546;48.714;8.738;2023-04-24T21:15:42;11.50;90.90
10986;DHT22;5546;48.714;8.738;2023-04-24T21:18:07;11.70;90.70
10986;DHT22;5546;48.714;8.738;2023-04-24T21:22:59;11.20;91.90
10986;DHT22;5546;48.714;8.738;2023-04-24T21:25:25;11.00;92.30
10986;DHT22;5546;48.714;8.738;2023-04-24T21:27:51;11.00;92.20
10986;DHT22;5546;48.714;8.738;2023-04-24T21:30:17;11.10;92.20
10986;DHT22;5546;48.714;8.738;2023-04-24T21:35:09;11.30;92.20
10986;DHT22;5546;48.714;8.738;2023-04-24T21:37:35;11.10;92.50
10986;DHT22;5546;48.714;8.738;2023-04-24T21:40:02;11.10;93.00
10986;DHT22;5546;48.714;8.738;2023-04-24T21:42:29;11.20;93.10
10986;DHT22;5546;48.714;8.738;2023-04-24T21:54:38;10.90;93.70
10986;DHT22;5546;48.714;8.738;2023-04-24T21:57:04;11.00;94.30
10986;DHT22;5546;48.714;8.738;2023-04-24T21:59:30;11.20;93.70
10986;DHT22;5546;48.714;8.738;2023-04-24T22:06:47;11.30;93.10
10986;DHT22;5546;48.714;8.738;2023-04-24T22:09:13;11.10;93.70
10986;DHT22;5546;48.714;8.738;2023-04-24T22:16:32;11.20;93.90
10986;DHT22;5546;48.714;8.738;2023-04-24T22:21:24;11.40;93.20
10986;DHT22;5546;48.714;8.738;2023-04-24T22:23:50;11.40;93.20
10986;DHT22;5546;48.714;8.738;2023-04-24T22:26:16;11.30;93.60
10986;DHT22;5546;48.714;8.738;2023-04-24T22:28:41;11.40;93.40
10986;DHT22;5546;48.714;8.738;2023-04-24T22:31:07;11.60;92.60
10986;DHT22;5546;48.714;8.738;2023-04-24T22:33:33;11.30;92.80
10986;DHT22;5546;48.714;8.738;2023-04-24T22:40:51;11.10;93.40
10986;DHT22;5546;48.714;8.738;2023-04-24T22:45:43;10.50;94.70
10986;DHT22;5546;48.714;8.738;2023-04-24T22:48:09;10.60;94.80
10986;DHT22;5546;48.714;8.738;2023-04-24T22:53:00;10.20;95.70
10986;DHT22;5546;48.714;8.738;2023-04-24T23:00:21;11.10;94.40
10986;DHT22;5546;48.714;8.738;2023-04-24T23:02:47;11.20;94.10
10986;DHT22;5546;48.714;8.738;2023-04-24T23:10:05;11.10;92.50
10986;DHT22;5546;48.714;8.738;2023-04-24T23:12:31;11.00;93.20
10986;DHT22;5546;48.714;8.738;2023-04-24T23:36:52;11.40;94.00
10986;DHT22;5546;48.714;8.738;2023-04-24T23:44:10;11.10;93.80
10986;DHT22;5546;48.714;8.738;2023-04-24T23:46:36;11.00;94.60
10986;DHT22;5546;48.714;8.738;2023-04-24T23:49:02;11.00;94.60
10986;DHT22;5546;48.714;8.738;2023-04-24T23:51:28;11.00;94.40
